sensor_id;sensor_type;location;lat;lon;timestamp;temperature;humidity
35497;DHT22;21609;49.298;6.844;2022-07-23T00:00:14;24.40;58.50
35497;DHT22;21609;49.298;6.844;2022-07-23T00:02:40;24.40;58.60
35497;DHT22;21609;49.298;6.844;2022-07-23T00:05:05;24.40;58.50
35497;DHT22;21609;49.298;6.844;2022-07-23T00:07:31;24.40;58.80
35497;DHT22;21609;49.298;6.844;2022-07-23T00:09:57;24.40;58.70
35497;DHT22;21609;49.298;6.844;2022-07-23T00:12:22;24.40;58.80
35497;DHT22;21609;49.298;6.844;2022-07-23T00:14:48;24.40;59.10
35497;DHT22;21609;49.298;6.844;2022-07-23T00:17:14;24.40;59.70
35497;DHT22;21609;49.298;6.844;2022-07-23T00:19:39;24.40;59.50
35497;DHT22;21609;49.298;6.844;2022-07-23T00:22:05;24.40;59.70
35497;DHT22;21609;49.298;6.844;2022-07-23T00:24:30;24.40;59.80
35497;DHT22;21609;49.298;6.844;2022-07-23T00:26:56;24.30;59.80
35497;DHT22;21609;49.298;6.844;2022-07-23T00:29:22;24.40;59.60
35497;DHT22;21609;49.298;6.844;2022-07-23T00:31:47;24.30;60.00
35497;DHT22;21609;49.298;6.844;2022-07-23T00:34:13;24.30;61.90
35497;DHT22;21609;49.298;6.844;2022-07-23T00:36:38;24.20;62.20
35497;DHT22;21609;49.298;6.844;2022-07-23T00:39:05;24.20;62.30
35497;DHT22;21609;49.298;6.844;2022-07-23T00:41:30;24.20;64.00
35497;DHT22;21609;49.298;6.844;2022-07-23T00:44:20;24.20;63.40
35497;DHT22;21609;49.298;6.844;2022-07-23T00:46:50;24.10;64.00
35497;DHT22;21609;49.298;6.844;2022-07-23T00:49:21;24.10;64.30
35497;DHT22;21609;49.298;6.844;2022-07-23T00:51:47;24.10;63.00
35497;DHT22;21609;49.298;6.844;2022-07-23T00:54:13;24.10;62.50
35497;DHT22;21609;49.298;6.844;2022-07-23T00:56:39;24.10;62.20
35497;DHT22;21609;49.298;6.844;2022-07-23T00:59:07;24.10;62.00
35497;DHT22;21609;49.298;6.844;2022-07-23T01:01:32;24.10;62.10
35497;DHT22;21609;49.298;6.844;2022-07-23T01:03:58;24.10;62.00
35497;DHT22;21609;49.298;6.844;2022-07-23T01:06:24;24.20;61.80
35497;DHT22;21609;49.298;6.844;2022-07-23T01:08:49;24.10;61.90
35497;DHT22;21609;49.298;6.844;2022-07-23T01:11:16;24.20;61.80
35497;DHT22;21609;49.298;6.844;2022-07-23T01:13:42;24.20;61.90
35497;DHT22;21609;49.298;6.844;2022-07-23T01:16:08;24.10;62.50
35497;DHT22;21609;49.298;6.844;2022-07-23T01:18:34;24.10;61.60
35497;DHT22;21609;49.298;6.844;2022-07-23T01:20:59;24.10;61.70
35497;DHT22;21609;49.298;6.844;2022-07-23T01:23:25;24.10;61.80
35497;DHT22;21609;49.298;6.844;2022-07-23T01:25:54;24.10;61.90
35497;DHT22;21609;49.298;6.844;2022-07-23T01:28:20;24.10;61.80
35497;DHT22;21609;49.298;6.844;2022-07-23T01:30:47;24.10;62.00
35497;DHT22;21609;49.298;6.844;2022-07-23T01:33:13;24.10;61.80
35497;DHT22;21609;49.298;6.844;2022-07-23T01:35:39;24.10;61.50
35497;DHT22;21609;49.298;6.844;2022-07-23T01:38:04;24.10;62.00
35497;DHT22;21609;49.298;6.844;2022-07-23T01:40:30;24.10;62.10
35497;DHT22;21609;49.298;6.844;2022-07-23T01:42:56;24.00;62.30
35497;DHT22;21609;49.298;6.844;2022-07-23T01:45:21;24.10;62.20
35497;DHT22;21609;49.298;6.844;2022-07-23T01:47:47;24.10;62.10
35497;DHT22;21609;49.298;6.844;2022-07-23T01:50:13;24.00;62.90
35497;DHT22;21609;49.298;6.844;2022-07-23T01:52:39;24.00;62.00
35497;DHT22;21609;49.298;6.844;2022-07-23T01:55:05;24.00;62.30
35497;DHT22;21609;49.298;6.844;2022-07-23T01:57:31;24.00;62.30
35497;DHT22;21609;49.298;6.844;2022-07-23T01:59:57;24.00;62.30
35497;DHT22;21609;49.298;6.844;2022-07-23T02:02:23;24.00;62.40
35497;DHT22;21609;49.298;6.844;2022-07-23T02:04:49;24.00;62.60
35497;DHT22;21609;49.298;6.844;2022-07-23T02:07:15;23.90;62.60
35497;DHT22;21609;49.298;6.844;2022-07-23T02:09:40;23.90;62.50
35497;DHT22;21609;49.298;6.844;2022-07-23T02:12:06;23.90;62.40
35497;DHT22;21609;49.298;6.844;2022-07-23T02:14:32;23.90;62.30
35497;DHT22;21609;49.298;6.844;2022-07-23T02:16:57;23.90;62.90
35497;DHT22;21609;49.298;6.844;2022-07-23T02:19:23;23.90;62.30
35497;DHT22;21609;49.298;6.844;2022-07-23T02:21:49;23.90;62.50
35497;DHT22;21609;49.298;6.844;2022-07-23T02:24:15;23.90;62.70
35497;DHT22;21609;49.298;6.844;2022-07-23T02:26:40;23.90;63.10
35497;DHT22;21609;49.298;6.844;2022-07-23T02:29:06;23.80;62.70
35497;DHT22;21609;49.298;6.844;2022-07-23T02:31:32;23.80;62.60
35497;DHT22;21609;49.298;6.844;2022-07-23T02:33:58;23.80;62.90
35497;DHT22;21609;49.298;6.844;2022-07-23T02:36:24;23.90;62.70
35497;DHT22;21609;49.298;6.844;2022-07-23T02:38:49;23.90;62.50
35497;DHT22;21609;49.298;6.844;2022-07-23T02:41:15;23.90;62.70
35497;DHT22;21609;49.298;6.844;2022-07-23T02:43:41;23.90;62.60
35497;DHT22;21609;49.298;6.844;2022-07-23T02:46:06;23.90;63.20
35497;DHT22;21609;49.298;6.844;2022-07-23T02:48:33;23.90;62.40
35497;DHT22;21609;49.298;6.844;2022-07-23T02:50:58;23.90;62.60
35497;DHT22;21609;49.298;6.844;2022-07-23T02:53:24;23.90;62.70
35497;DHT22;21609;49.298;6.844;2022-07-23T02:55:50;23.80;63.00
35497;DHT22;21609;49.298;6.844;2022-07-23T02:58:15;23.80;63.00
35497;DHT22;21609;49.298;6.844;2022-07-23T03:00:41;23.80;63.20
35497;DHT22;21609;49.298;6.844;2022-07-23T03:03:06;23.80;62.70
35497;DHT22;21609;49.298;6.844;2022-07-23T03:05:33;23.80;62.80
35497;DHT22;21609;49.298;6.844;2022-07-23T03:07:58;23.80;62.50
35497;DHT22;21609;49.298;6.844;2022-07-23T03:10:24;23.80;62.90
35497;DHT22;21609;49.298;6.844;2022-07-23T03:12:50;23.80;63.00
35497;DHT22;21609;49.298;6.844;2022-07-23T03:15:16;23.80;62.90
35497;DHT22;21609;49.298;6.844;2022-07-23T03:17:42;23.70;63.70
35497;DHT22;21609;49.298;6.844;2022-07-23T03:20:08;23.80;62.70
35497;DHT22;21609;49.298;6.844;2022-07-23T03:22:34;23.80;62.90
35497;DHT22;21609;49.298;6.844;2022-07-23T03:24:59;23.80;63.10
35497;DHT22;21609;49.298;6.844;2022-07-23T03:27:27;23.80;64.30
35497;DHT22;21609;49.298;6.844;2022-07-23T03:29:54;23.70;63.20
35497;DHT22;21609;49.298;6.844;2022-07-23T03:32:21;23.70;63.60
35497;DHT22;21609;49.298;6.844;2022-07-23T03:34:47;23.80;64.00
35497;DHT22;21609;49.298;6.844;2022-07-23T03:37:13;23.70;63.00
35497;DHT22;21609;49.298;6.844;2022-07-23T03:39:39;23.70;63.00
35497;DHT22;21609;49.298;6.844;2022-07-23T03:42:05;23.70;63.60
35497;DHT22;21609;49.298;6.844;2022-07-23T03:44:31;23.70;63.00
35497;DHT22;21609;49.298;6.844;2022-07-23T03:46:57;23.70;63.00
35497;DHT22;21609;49.298;6.844;2022-07-23T03:49:22;23.70;63.00
35497;DHT22;21609;49.298;6.844;2022-07-23T03:51:48;23.70;63.10
35497;DHT22;21609;49.298;6.844;2022-07-23T03:54:14;23.70;63.30
35497;DHT22;21609;49.298;6.844;2022-07-23T03:56:39;23.70;63.60
35497;DHT22;21609;49.298;6.844;2022-07-23T03:59:05;23.60;63.30
35497;DHT22;21609;49.298;6.844;2022-07-23T04:01:31;23.70;63.30
35497;DHT22;21609;49.298;6.844;2022-07-23T04:03:56;23.70;63.30
35497;DHT22;21609;49.298;6.844;2022-07-23T04:06:22;23.70;63.40
35497;DHT22;21609;49.298;6.844;2022-07-23T04:08:48;23.70;63.30
35497;DHT22;21609;49.298;6.844;2022-07-23T04:11:13;23.70;63.40
35497;DHT22;21609;49.298;6.844;2022-07-23T04:13:39;23.70;63.50
35497;DHT22;21609;49.298;6.844;2022-07-23T04:16:05;23.70;63.30
35497;DHT22;21609;49.298;6.844;2022-07-23T04:18:32;23.70;63.30
35497;DHT22;21609;49.298;6.844;2022-07-23T04:20:57;23.70;63.30
35497;DHT22;21609;49.298;6.844;2022-07-23T04:23:23;23.70;63.40
35497;DHT22;21609;49.298;6.844;2022-07-23T04:25:48;23.70;63.30
35497;DHT22;21609;49.298;6.844;2022-07-23T04:28:14;23.60;63.50
35497;DHT22;21609;49.298;6.844;2022-07-23T04:30:40;23.60;63.40
35497;DHT22;21609;49.298;6.844;2022-07-23T04:33:06;23.60;63.30
35497;DHT22;21609;49.298;6.844;2022-07-23T04:35:35;23.60;63.70
35497;DHT22;21609;49.298;6.844;2022-07-23T04:38:02;23.60;63.90
35497;DHT22;21609;49.298;6.844;2022-07-23T04:40:29;23.50;63.60
35497;DHT22;21609;49.298;6.844;2022-07-23T04:42:54;23.50;63.30
35497;DHT22;21609;49.298;6.844;2022-07-23T04:45:20;23.50;63.30
35497;DHT22;21609;49.298;6.844;2022-07-23T04:47:46;23.50;63.50
35497;DHT22;21609;49.298;6.844;2022-07-23T04:50:11;23.50;63.70
35497;DHT22;21609;49.298;6.844;2022-07-23T04:52:37;23.40;64.60
35497;DHT22;21609;49.298;6.844;2022-07-23T04:55:03;23.40;65.00
35497;DHT22;21609;49.298;6.844;2022-07-23T04:57:29;23.40;64.60
35497;DHT22;21609;49.298;6.844;2022-07-23T04:59:55;23.40;64.50
35497;DHT22;21609;49.298;6.844;2022-07-23T05:02:20;23.40;65.30
35497;DHT22;21609;49.298;6.844;2022-07-23T05:04:46;23.40;65.40
35497;DHT22;21609;49.298;6.844;2022-07-23T05:07:11;23.40;65.40
35497;DHT22;21609;49.298;6.844;2022-07-23T05:09:37;23.40;66.30
35497;DHT22;21609;49.298;6.844;2022-07-23T05:12:03;23.40;66.20
35497;DHT22;21609;49.298;6.844;2022-07-23T05:14:29;23.30;66.10
35497;DHT22;21609;49.298;6.844;2022-07-23T05:16:54;23.30;66.50
35497;DHT22;21609;49.298;6.844;2022-07-23T05:19:20;23.30;66.30
35497;DHT22;21609;49.298;6.844;2022-07-23T05:21:46;23.30;66.30
35497;DHT22;21609;49.298;6.844;2022-07-23T05:24:11;23.30;66.60
35497;DHT22;21609;49.298;6.844;2022-07-23T05:26:37;23.30;66.60
35497;DHT22;21609;49.298;6.844;2022-07-23T05:29:02;23.30;66.90
35497;DHT22;21609;49.298;6.844;2022-07-23T05:31:28;23.30;67.30
35497;DHT22;21609;49.298;6.844;2022-07-23T05:33:54;23.20;67.70
35497;DHT22;21609;49.298;6.844;2022-07-23T05:36:19;23.20;67.90
35497;DHT22;21609;49.298;6.844;2022-07-23T05:38:45;23.20;68.20
35497;DHT22;21609;49.298;6.844;2022-07-23T05:41:10;23.10;68.10
35497;DHT22;21609;49.298;6.844;2022-07-23T05:43:36;23.10;68.40
35497;DHT22;21609;49.298;6.844;2022-07-23T05:46:01;23.10;68.60
35497;DHT22;21609;49.298;6.844;2022-07-23T05:48:27;23.10;69.10
35497;DHT22;21609;49.298;6.844;2022-07-23T05:50:53;23.10;69.00
35497;DHT22;21609;49.298;6.844;2022-07-23T05:53:18;23.10;69.60
35497;DHT22;21609;49.298;6.844;2022-07-23T05:55:44;23.10;69.40
35497;DHT22;21609;49.298;6.844;2022-07-23T05:58:10;23.10;69.50
35497;DHT22;21609;49.298;6.844;2022-07-23T06:00:35;23.10;69.50
35497;DHT22;21609;49.298;6.844;2022-07-23T06:03:01;23.10;69.70
35497;DHT22;21609;49.298;6.844;2022-07-23T06:05:26;23.10;69.70
35497;DHT22;21609;49.298;6.844;2022-07-23T06:07:52;23.10;69.70
35497;DHT22;21609;49.298;6.844;2022-07-23T06:10:19;23.20;69.90
35497;DHT22;21609;49.298;6.844;2022-07-23T06:12:45;23.20;70.00
35497;DHT22;21609;49.298;6.844;2022-07-23T06:15:11;23.20;69.70
35497;DHT22;21609;49.298;6.844;2022-07-23T06:17:37;23.20;69.30
35497;DHT22;21609;49.298;6.844;2022-07-23T06:20:09;23.20;69.10
35497;DHT22;21609;49.298;6.844;2022-07-23T06:22:35;23.30;68.80
35497;DHT22;21609;49.298;6.844;2022-07-23T06:25:01;23.30;68.80
35497;DHT22;21609;49.298;6.844;2022-07-23T06:27:26;23.40;68.10
35497;DHT22;21609;49.298;6.844;2022-07-23T06:29:52;23.40;68.00
35497;DHT22;21609;49.298;6.844;2022-07-23T06:32:18;23.40;67.60
35497;DHT22;21609;49.298;6.844;2022-07-23T06:34:44;23.40;67.60
35497;DHT22;21609;49.298;6.844;2022-07-23T06:37:09;23.40;67.30
35497;DHT22;21609;49.298;6.844;2022-07-23T06:39:35;23.50;67.10
35497;DHT22;21609;49.298;6.844;2022-07-23T06:42:01;23.40;66.80
35497;DHT22;21609;49.298;6.844;2022-07-23T06:44:26;23.50;66.70
35497;DHT22;21609;49.298;6.844;2022-07-23T06:46:52;23.50;66.40
35497;DHT22;21609;49.298;6.844;2022-07-23T06:49:19;23.50;66.30
35497;DHT22;21609;49.298;6.844;2022-07-23T06:51:44;23.60;66.30
35497;DHT22;21609;49.298;6.844;2022-07-23T06:54:10;23.50;66.20
35497;DHT22;21609;49.298;6.844;2022-07-23T06:56:36;23.60;66.10
35497;DHT22;21609;49.298;6.844;2022-07-23T06:59:02;23.60;65.90
35497;DHT22;21609;49.298;6.844;2022-07-23T07:01:27;23.70;65.80
35497;DHT22;21609;49.298;6.844;2022-07-23T07:03:53;23.70;65.60
35497;DHT22;21609;49.298;6.844;2022-07-23T07:06:18;23.70;65.40
35497;DHT22;21609;49.298;6.844;2022-07-23T07:08:44;23.70;65.20
35497;DHT22;21609;49.298;6.844;2022-07-23T07:11:10;23.70;65.20
35497;DHT22;21609;49.298;6.844;2022-07-23T07:13:37;23.80;65.10
35497;DHT22;21609;49.298;6.844;2022-07-23T07:16:03;23.80;64.70
35497;DHT22;21609;49.298;6.844;2022-07-23T07:18:29;23.80;64.60
35497;DHT22;21609;49.298;6.844;2022-07-23T07:20:54;23.80;64.40
35497;DHT22;21609;49.298;6.844;2022-07-23T07:23:20;23.90;64.50
35497;DHT22;21609;49.298;6.844;2022-07-23T07:25:46;23.90;64.40
35497;DHT22;21609;49.298;6.844;2022-07-23T07:28:12;23.90;64.40
35497;DHT22;21609;49.298;6.844;2022-07-23T07:30:38;23.90;64.30
35497;DHT22;21609;49.298;6.844;2022-07-23T07:33:04;23.90;64.10
35497;DHT22;21609;49.298;6.844;2022-07-23T07:35:30;23.90;65.10
35497;DHT22;21609;49.298;6.844;2022-07-23T07:37:58;23.90;64.30
35497;DHT22;21609;49.298;6.844;2022-07-23T07:40:24;23.90;64.10
35497;DHT22;21609;49.298;6.844;2022-07-23T07:42:52;23.90;64.10
35497;DHT22;21609;49.298;6.844;2022-07-23T07:45:22;23.90;64.00
35497;DHT22;21609;49.298;6.844;2022-07-23T07:47:48;23.90;63.90
35497;DHT22;21609;49.298;6.844;2022-07-23T07:50:14;23.90;63.80
35497;DHT22;21609;49.298;6.844;2022-07-23T07:52:40;23.90;63.50
35497;DHT22;21609;49.298;6.844;2022-07-23T07:55:07;23.90;63.40
35497;DHT22;21609;49.298;6.844;2022-07-23T07:57:33;24.00;63.40
35497;DHT22;21609;49.298;6.844;2022-07-23T07:59:59;24.00;63.30
35497;DHT22;21609;49.298;6.844;2022-07-23T08:02:24;24.00;63.20
35497;DHT22;21609;49.298;6.844;2022-07-23T08:04:50;24.00;64.00
35497;DHT22;21609;49.298;6.844;2022-07-23T08:07:16;24.00;63.10
35497;DHT22;21609;49.298;6.844;2022-07-23T08:09:42;24.00;63.00
35497;DHT22;21609;49.298;6.844;2022-07-23T08:12:07;24.10;62.90
35497;DHT22;21609;49.298;6.844;2022-07-23T08:14:33;24.10;62.90
35497;DHT22;21609;49.298;6.844;2022-07-23T08:16:59;24.10;62.80
35497;DHT22;21609;49.298;6.844;2022-07-23T08:19:24;24.10;62.70
35497;DHT22;21609;49.298;6.844;2022-07-23T08:21:50;24.10;62.60
35497;DHT22;21609;49.298;6.844;2022-07-23T08:24:16;24.10;62.60
35497;DHT22;21609;49.298;6.844;2022-07-23T08:26:41;24.10;62.50
35497;DHT22;21609;49.298;6.844;2022-07-23T08:29:07;24.10;62.40
35497;DHT22;21609;49.298;6.844;2022-07-23T08:31:33;24.10;62.20
35497;DHT22;21609;49.298;6.844;2022-07-23T08:33:59;24.20;62.50
35497;DHT22;21609;49.298;6.844;2022-07-23T08:36:25;24.20;62.20
35497;DHT22;21609;49.298;6.844;2022-07-23T08:38:53;24.20;62.20
35497;DHT22;21609;49.298;6.844;2022-07-23T08:41:19;24.20;62.80
35497;DHT22;21609;49.298;6.844;2022-07-23T08:43:45;24.20;62.00
35497;DHT22;21609;49.298;6.844;2022-07-23T08:46:13;24.20;61.90
35497;DHT22;21609;49.298;6.844;2022-07-23T08:48:39;24.30;62.20
35497;DHT22;21609;49.298;6.844;2022-07-23T08:51:06;24.30;62.00
35497;DHT22;21609;49.298;6.844;2022-07-23T08:53:33;24.30;61.90
35497;DHT22;21609;49.298;6.844;2022-07-23T08:56:01;24.30;61.80
35497;DHT22;21609;49.298;6.844;2022-07-23T08:58:27;24.30;61.80
35497;DHT22;21609;49.298;6.844;2022-07-23T09:00:53;24.30;62.50
35497;DHT22;21609;49.298;6.844;2022-07-23T09:03:24;24.40;61.70
35497;DHT22;21609;49.298;6.844;2022-07-23T09:05:51;24.30;61.60
35497;DHT22;21609;49.298;6.844;2022-07-23T09:08:19;24.40;62.40
35497;DHT22;21609;49.298;6.844;2022-07-23T09:10:47;24.40;61.60
35497;DHT22;21609;49.298;6.844;2022-07-23T09:15:52;24.40;61.50
35497;DHT22;21609;49.298;6.844;2022-07-23T09:18:18;24.40;61.40
35497;DHT22;21609;49.298;6.844;2022-07-23T09:20:44;24.50;61.50
35497;DHT22;21609;49.298;6.844;2022-07-23T09:23:10;24.40;61.20
35497;DHT22;21609;49.298;6.844;2022-07-23T09:25:35;24.40;61.20
35497;DHT22;21609;49.298;6.844;2022-07-23T09:28:02;24.50;61.30
35497;DHT22;21609;49.298;6.844;2022-07-23T09:30:32;24.50;61.20
35497;DHT22;21609;49.298;6.844;2022-07-23T09:33:10;24.50;61.10
35497;DHT22;21609;49.298;6.844;2022-07-23T09:35:53;24.50;61.00
35497;DHT22;21609;49.298;6.844;2022-07-23T09:38:21;24.50;60.80
35497;DHT22;21609;49.298;6.844;2022-07-23T09:43:32;24.60;60.60
35497;DHT22;21609;49.298;6.844;2022-07-23T09:46:20;24.60;60.80
35497;DHT22;21609;49.298;6.844;2022-07-23T09:48:47;24.50;60.50
35497;DHT22;21609;49.298;6.844;2022-07-23T09:51:13;24.60;60.60
35497;DHT22;21609;49.298;6.844;2022-07-23T09:53:45;24.60;60.50
35497;DHT22;21609;49.298;6.844;2022-07-23T09:56:13;24.60;60.50
35497;DHT22;21609;49.298;6.844;2022-07-23T09:58:40;24.60;60.60
35497;DHT22;21609;49.298;6.844;2022-07-23T10:01:12;24.60;60.60
35497;DHT22;21609;49.298;6.844;2022-07-23T10:03:40;24.70;60.30
35497;DHT22;21609;49.298;6.844;2022-07-23T10:06:10;24.60;60.10
35497;DHT22;21609;49.298;6.844;2022-07-23T10:08:41;24.60;60.10
35497;DHT22;21609;49.298;6.844;2022-07-23T10:11:08;24.70;60.10
35497;DHT22;21609;49.298;6.844;2022-07-23T10:13:35;24.70;60.00
35497;DHT22;21609;49.298;6.844;2022-07-23T10:16:19;24.70;60.00
35497;DHT22;21609;49.298;6.844;2022-07-23T10:18:46;24.70;60.00
35497;DHT22;21609;49.298;6.844;2022-07-23T10:21:18;24.70;60.00
35497;DHT22;21609;49.298;6.844;2022-07-23T10:23:58;24.70;60.10
35497;DHT22;21609;49.298;6.844;2022-07-23T10:29:23;24.70;59.90
35497;DHT22;21609;49.298;6.844;2022-07-23T10:31:59;24.70;60.10
35497;DHT22;21609;49.298;6.844;2022-07-23T10:37:07;24.70;60.30
35497;DHT22;21609;49.298;6.844;2022-07-23T10:39:38;24.70;60.10
35497;DHT22;21609;49.298;6.844;2022-07-23T10:42:17;24.80;59.90
35497;DHT22;21609;49.298;6.844;2022-07-23T10:44:47;24.80;59.90
35497;DHT22;21609;49.298;6.844;2022-07-23T10:47:33;24.70;59.90
35497;DHT22;21609;49.298;6.844;2022-07-23T10:57:57;24.80;59.80
35497;DHT22;21609;49.298;6.844;2022-07-23T11:00:24;24.90;59.80
35497;DHT22;21609;49.298;6.844;2022-07-23T11:02:52;24.90;60.40
35497;DHT22;21609;49.298;6.844;2022-07-23T11:05:41;24.90;59.80
35497;DHT22;21609;49.298;6.844;2022-07-23T11:10:55;24.90;59.60
35497;DHT22;21609;49.298;6.844;2022-07-23T11:24:06;24.90;59.60
35497;DHT22;21609;49.298;6.844;2022-07-23T11:26:54;24.90;59.60
35497;DHT22;21609;49.298;6.844;2022-07-23T11:31:59;24.90;59.60
35497;DHT22;21609;49.298;6.844;2022-07-23T11:34:39;24.90;59.70
35497;DHT22;21609;49.298;6.844;2022-07-23T11:37:07;25.00;59.50
35497;DHT22;21609;49.298;6.844;2022-07-23T11:39:33;25.00;59.50
35497;DHT22;21609;49.298;6.844;2022-07-23T11:42:00;24.90;59.50
35497;DHT22;21609;49.298;6.844;2022-07-23T11:44:32;24.90;60.10
35497;DHT22;21609;49.298;6.844;2022-07-23T11:47:03;25.00;59.70
35497;DHT22;21609;49.298;6.844;2022-07-23T11:49:29;25.00;59.50
35497;DHT22;21609;49.298;6.844;2022-07-23T11:52:06;25.00;59.60
35497;DHT22;21609;49.298;6.844;2022-07-23T11:54:34;25.00;59.60
35497;DHT22;21609;49.298;6.844;2022-07-23T11:57:00;25.00;59.50
35497;DHT22;21609;49.298;6.844;2022-07-23T11:59:31;24.90;60.20
35497;DHT22;21609;49.298;6.844;2022-07-23T12:02:05;24.90;59.60
35497;DHT22;21609;49.298;6.844;2022-07-23T12:04:46;25.00;59.40
35497;DHT22;21609;49.298;6.844;2022-07-23T12:10:17;25.00;59.30
35497;DHT22;21609;49.298;6.844;2022-07-23T12:12:55;25.00;59.40
35497;DHT22;21609;49.298;6.844;2022-07-23T12:17:52;25.00;59.40
35497;DHT22;21609;49.298;6.844;2022-07-23T12:20:23;25.00;59.30
35497;DHT22;21609;49.298;6.844;2022-07-23T12:22:51;25.00;59.40
35497;DHT22;21609;49.298;6.844;2022-07-23T12:25:19;25.00;59.30
35497;DHT22;21609;49.298;6.844;2022-07-23T12:27:46;25.00;59.30
35497;DHT22;21609;49.298;6.844;2022-07-23T12:30:30;25.00;59.30
35497;DHT22;21609;49.298;6.844;2022-07-23T12:32:58;25.00;59.30
35497;DHT22;21609;49.298;6.844;2022-07-23T12:35:34;25.00;59.30
35497;DHT22;21609;49.298;6.844;2022-07-23T12:38:05;25.00;59.20
35497;DHT22;21609;49.298;6.844;2022-07-23T12:40:32;25.00;59.20
35497;DHT22;21609;49.298;6.844;2022-07-23T12:43:09;25.00;59.20
35497;DHT22;21609;49.298;6.844;2022-07-23T12:45:52;25.00;59.10
35497;DHT22;21609;49.298;6.844;2022-07-23T12:48:27;25.00;59.10
35497;DHT22;21609;49.298;6.844;2022-07-23T12:50:57;25.00;59.70
35497;DHT22;21609;49.298;6.844;2022-07-23T12:53:40;25.00;59.10
35497;DHT22;21609;49.298;6.844;2022-07-23T12:56:20;25.10;59.00
35497;DHT22;21609;49.298;6.844;2022-07-23T12:58:55;25.00;58.90
35497;DHT22;21609;49.298;6.844;2022-07-23T13:06:33;25.10;58.70
35497;DHT22;21609;49.298;6.844;2022-07-23T13:09:00;25.20;58.80
35497;DHT22;21609;49.298;6.844;2022-07-23T13:11:25;25.20;58.80
35497;DHT22;21609;49.298;6.844;2022-07-23T13:13:51;25.20;59.20
35497;DHT22;21609;49.298;6.844;2022-07-23T13:16:17;25.20;58.90
35497;DHT22;21609;49.298;6.844;2022-07-23T13:18:42;25.20;58.80
35497;DHT22;21609;49.298;6.844;2022-07-23T13:21:08;25.20;58.30
35497;DHT22;21609;49.298;6.844;2022-07-23T13:23:34;25.20;58.60
35497;DHT22;21609;49.298;6.844;2022-07-23T13:26:00;25.20;58.50
35497;DHT22;21609;49.298;6.844;2022-07-23T13:28:26;25.20;58.40
35497;DHT22;21609;49.298;6.844;2022-07-23T13:30:52;25.20;58.30
35497;DHT22;21609;49.298;6.844;2022-07-23T13:33:22;25.30;58.30
35497;DHT22;21609;49.298;6.844;2022-07-23T13:35:49;25.30;58.20
35497;DHT22;21609;49.298;6.844;2022-07-23T13:38:16;25.30;58.20
35497;DHT22;21609;49.298;6.844;2022-07-23T13:40:44;25.20;58.20
35497;DHT22;21609;49.298;6.844;2022-07-23T13:43:11;25.20;58.20
35497;DHT22;21609;49.298;6.844;2022-07-23T13:45:38;25.20;58.20
35497;DHT22;21609;49.298;6.844;2022-07-23T13:48:04;25.20;58.20
35497;DHT22;21609;49.298;6.844;2022-07-23T13:50:30;25.20;58.10
35497;DHT22;21609;49.298;6.844;2022-07-23T13:52:56;25.20;58.10
35497;DHT22;21609;49.298;6.844;2022-07-23T13:55:22;25.20;58.10
35497;DHT22;21609;49.298;6.844;2022-07-23T13:57:48;25.20;58.10
35497;DHT22;21609;49.298;6.844;2022-07-23T14:00:14;25.30;58.10
35497;DHT22;21609;49.298;6.844;2022-07-23T14:02:40;25.30;58.10
35497;DHT22;21609;49.298;6.844;2022-07-23T14:05:08;25.20;58.10
35497;DHT22;21609;49.298;6.844;2022-07-23T14:07:36;25.20;58.10
35497;DHT22;21609;49.298;6.844;2022-07-23T14:10:04;25.20;58.10
35497;DHT22;21609;49.298;6.844;2022-07-23T14:12:30;25.20;58.10
35497;DHT22;21609;49.298;6.844;2022-07-23T14:14:55;25.20;58.10
35497;DHT22;21609;49.298;6.844;2022-07-23T14:17:21;25.20;58.00
35497;DHT22;21609;49.298;6.844;2022-07-23T14:19:47;25.30;57.90
35497;DHT22;21609;49.298;6.844;2022-07-23T14:22:13;25.30;57.90
35497;DHT22;21609;49.298;6.844;2022-07-23T14:24:38;25.30;57.80
35497;DHT22;21609;49.298;6.844;2022-07-23T14:27:05;25.30;57.70
35497;DHT22;21609;49.298;6.844;2022-07-23T14:29:31;25.40;57.60
35497;DHT22;21609;49.298;6.844;2022-07-23T14:31:57;25.40;57.60
35497;DHT22;21609;49.298;6.844;2022-07-23T14:34:23;25.40;57.50
35497;DHT22;21609;49.298;6.844;2022-07-23T14:36:48;25.40;57.50
35497;DHT22;21609;49.298;6.844;2022-07-23T14:39:14;25.40;57.60
35497;DHT22;21609;49.298;6.844;2022-07-23T14:41:40;25.30;57.60
35497;DHT22;21609;49.298;6.844;2022-07-23T14:44:06;25.30;57.50
35497;DHT22;21609;49.298;6.844;2022-07-23T14:46:31;25.30;57.60
35497;DHT22;21609;49.298;6.844;2022-07-23T14:48:57;25.30;58.20
35497;DHT22;21609;49.298;6.844;2022-07-23T14:51:23;25.30;57.60
35497;DHT22;21609;49.298;6.844;2022-07-23T14:53:48;25.30;57.60
35497;DHT22;21609;49.298;6.844;2022-07-23T14:56:14;25.30;57.60
35497;DHT22;21609;49.298;6.844;2022-07-23T14:58:41;25.30;57.60
35497;DHT22;21609;49.298;6.844;2022-07-23T15:01:06;25.30;57.60
35497;DHT22;21609;49.298;6.844;2022-07-23T15:03:33;25.30;57.40
35497;DHT22;21609;49.298;6.844;2022-07-23T15:05:59;25.30;57.60
35497;DHT22;21609;49.298;6.844;2022-07-23T15:08:24;25.40;57.40
35497;DHT22;21609;49.298;6.844;2022-07-23T15:10:50;25.40;57.40
35497;DHT22;21609;49.298;6.844;2022-07-23T15:13:16;25.40;57.40
35497;DHT22;21609;49.298;6.844;2022-07-23T15:15:42;25.40;57.40
35497;DHT22;21609;49.298;6.844;2022-07-23T15:18:08;25.30;57.40
35497;DHT22;21609;49.298;6.844;2022-07-23T15:20:33;25.30;57.30
35497;DHT22;21609;49.298;6.844;2022-07-23T15:22:59;25.30;57.40
35497;DHT22;21609;49.298;6.844;2022-07-23T15:25:25;25.30;57.40
35497;DHT22;21609;49.298;6.844;2022-07-23T15:27:50;25.30;57.40
35497;DHT22;21609;49.298;6.844;2022-07-23T15:30:16;25.40;57.40
35497;DHT22;21609;49.298;6.844;2022-07-23T15:32:41;25.40;57.40
35497;DHT22;21609;49.298;6.844;2022-07-23T15:35:07;25.40;57.40
35497;DHT22;21609;49.298;6.844;2022-07-23T15:37:34;25.40;57.40
35497;DHT22;21609;49.298;6.844;2022-07-23T15:40:00;25.40;57.30
35497;DHT22;21609;49.298;6.844;2022-07-23T15:42:26;25.30;57.30
35497;DHT22;21609;49.298;6.844;2022-07-23T15:44:52;25.30;57.30
35497;DHT22;21609;49.298;6.844;2022-07-23T15:47:18;25.30;57.20
35497;DHT22;21609;49.298;6.844;2022-07-23T15:49:45;25.40;57.40
35497;DHT22;21609;49.298;6.844;2022-07-23T15:52:12;25.40;57.30
35497;DHT22;21609;49.298;6.844;2022-07-23T15:54:39;25.30;57.30
35497;DHT22;21609;49.298;6.844;2022-07-23T15:57:05;25.30;57.20
35497;DHT22;21609;49.298;6.844;2022-07-23T15:59:31;25.30;57.40
35497;DHT22;21609;49.298;6.844;2022-07-23T16:01:57;25.30;57.30
35497;DHT22;21609;49.298;6.844;2022-07-23T16:04:23;25.30;57.40
35497;DHT22;21609;49.298;6.844;2022-07-23T16:06:49;25.30;57.30
35497;DHT22;21609;49.298;6.844;2022-07-23T16:09:15;25.30;57.30
35497;DHT22;21609;49.298;6.844;2022-07-23T16:11:41;25.30;57.30
35497;DHT22;21609;49.298;6.844;2022-07-23T16:14:07;25.30;57.30